Time;durP1;ratioP1;P1;durP2;ratioP2;P2;SDS_P1;SDS_P2;PMS_P1;PMS_P2;Temp;Humidity;BMP_temperature;BMP_pressure;BME280_temperature;BME280_humidity;BME280_pressure;Samples;Min_cycle;Max_cycle;Signal;HPM_P1;HPM_P2
2021/03/17 00:01:08;;;;;;;;;;;;;;;9.44;60.20;101592.03;4999556;28;7193;-76
2021/03/17 00:03:34;;;;;;;;;;;;;;;9.40;60.29;101584.03;5000629;28;6842;-76
2021/03/17 00:05:59;;;;;;;;;;;;;;;9.40;60.25;101591.81;4991270;28;7241;-76
2021/03/17 00:08:25;;;;;;;;;;;;;;;9.39;60.40;101585.75;4988691;28;7412;-76
2021/03/17 00:10:52;;;;;;;;;;;;;;;9.38;60.27;101588.28;4997935;28;7624;-76
2021/03/17 00:13:19;;;;;;;;;;;;;;;9.37;60.29;101595.16;5013438;28;7371;-76
2021/03/17 00:15:44;;;;;;;;;;;;;;;9.33;60.65;101592.38;5014444;28;6799;-75
2021/03/17 00:18:11;;;;;;;;;;;;;;;9.29;60.85;101580.13;5007012;28;6847;-76
2021/03/17 00:20:37;;;;;;;;;;;;;;;9.31;60.65;101587.16;4995140;28;6986;-76
2021/03/17 00:23:02;;;;;;;;;;;;;;;9.29;60.58;101587.91;4990013;28;6798;-76
2021/03/17 00:25:29;;;;;;;;;;;;;;;9.30;60.77;101587.09;5003422;28;7249;-76
2021/03/17 00:27:55;;;;;;;;;;;;;;;9.29;60.67;101587.91;4997224;28;7114;-76
2021/03/17 00:30:21;;;;;;;;;;;;;;;9.27;60.73;101590.44;5012323;28;7269;-75
2021/03/17 00:32:47;;;;;;;;;;;;;;;9.27;60.71;101594.72;4998427;28;7561;-76
2021/03/17 00:35:12;;;;;;;;;;;;;;;9.22;60.86;101597.13;5010655;28;7079;-76
2021/03/17 00:37:38;;;;;;;;;;;;;;;9.21;61.37;101599.63;5010290;28;7152;-76
2021/03/17 00:40:04;;;;;;;;;;;;;;;9.20;60.85;101588.38;4993203;28;7036;-75
2021/03/17 00:42:58;;;;;;;;;;;;;;;9.20;60.79;101587.50;5003419;28;7622;-75
2021/03/17 00:45:23;;;;;;;;;;;;;;;9.17;61.31;101593.44;5011689;28;13150;-75
2021/03/17 00:47:49;;;;;;;;;;;;;;;9.18;60.88;101596.91;5001374;28;6858;-75
2021/03/17 00:50:15;;;;;;;;;;;;;;;9.14;61.04;101601.09;4993918;28;7047;-76
2021/03/17 00:52:41;;;;;;;;;;;;;;;9.12;61.06;101600.16;5013649;28;7130;-76
2021/03/17 00:55:07;;;;;;;;;;;;;;;9.13;60.93;101602.81;5015600;28;6921;-76
2021/03/17 00:57:33;;;;;;;;;;;;;;;9.12;60.77;101605.31;5017883;28;6965;-75
2021/03/17 00:59:58;;;;;;;;;;;;;;;9.13;60.74;101614.88;4992356;28;7096;-76
2021/03/17 01:02:24;;;;;;;;;;;;;;;9.10;61.18;101606.97;5019151;28;7245;-75
2021/03/17 01:05:29;;;;;;;;;;;;;;;9.09;60.88;101610.38;5002330;28;6871;-76
2021/03/17 01:07:55;;;;;;;;;;;;;;;9.09;60.90;101610.38;5018680;28;11276;-75
2021/03/17 01:10:34;;;;;;;;;;;;;;;9.05;61.17;101608.50;4986357;28;7661;-76
2021/03/17 01:12:59;;;;;;;;;;;;;;;9.03;61.38;101604.94;5017917;28;7204;-76
2021/03/17 01:15:25;;;;;;;;;;;;;;;9.03;61.12;101600.66;5019320;28;7179;-76
2021/03/17 01:17:50;;;;;;;;;;;;;;;9.02;61.39;101598.00;5019016;28;7106;-75
2021/03/17 01:20:17;;;;;;;;;;;;;;;9.00;61.50;101604.78;4998013;28;6788;-75
2021/03/17 01:22:42;;;;;;;;;;;;;;;9.01;61.37;101601.38;5014506;28;6797;-75
2021/03/17 01:25:10;;;;;;;;;;;;;;;9.00;61.14;101597.00;5015689;28;8693;-75
2021/03/17 01:27:36;;;;;;;;;;;;;;;8.99;61.32;101605.63;5013196;28;7227;-76
2021/03/17 01:30:03;;;;;;;;;;;;;;;8.99;61.29;101610.78;5012257;28;7214;-75
2021/03/17 01:32:28;;;;;;;;;;;;;;;8.95;61.17;101603.72;4989482;28;6969;-76
2021/03/17 01:34:54;;;;;;;;;;;;;;;8.94;61.25;101604.53;5002195;28;8329;-76
2021/03/17 01:37:19;;;;;;;;;;;;;;;8.95;61.27;101614.06;5010122;28;6808;-76
2021/03/17 01:39:45;;;;;;;;;;;;;;;8.92;61.40;101607.06;5014397;28;7189;-76
2021/03/17 01:42:10;;;;;;;;;;;;;;;8.92;61.52;101611.34;5014878;28;6942;-76
2021/03/17 01:44:36;;;;;;;;;;;;;;;8.91;61.27;101602.69;5009710;28;7258;-76
2021/03/17 01:47:01;;;;;;;;;;;;;;;8.91;61.48;101610.47;4983307;28;7403;-75
2021/03/17 01:49:27;;;;;;;;;;;;;;;8.85;61.56;101610.22;5006959;28;6945;-76
2021/03/17 01:51:53;;;;;;;;;;;;;;;8.90;61.48;101613.00;5017673;28;6826;-75
2021/03/17 01:54:18;;;;;;;;;;;;;;;8.87;61.78;101607.69;5002856;28;6864;-75
2021/03/17 01:56:44;;;;;;;;;;;;;;;8.84;61.89;101609.34;5017441;28;9588;-75
2021/03/17 01:59:09;;;;;;;;;;;;;;;8.82;61.87;101610.09;4993072;28;7829;-75
2021/03/17 02:01:35;;;;;;;;;;;;;;;8.83;61.87;101614.44;5000477;28;7295;-76
2021/03/17 02:04:02;;;;;;;;;;;;;;;8.81;61.76;101611.78;4999984;28;6884;-76
2021/03/17 02:06:27;;;;;;;;;;;;;;;8.80;61.87;101612.56;5009539;28;8699;-76
2021/03/17 02:08:53;;;;;;;;;;;;;;;8.79;61.73;101608.22;4997829;28;7863;-75
2021/03/17 02:11:18;;;;;;;;;;;;;;;8.78;61.42;101616.81;5005088;28;7160;-76
2021/03/17 02:14:02;;;;;;;;;;;;;;;8.77;61.90;101609.84;5015132;28;7051;-75
2021/03/17 02:16:46;;;;;;;;;;;;;;;8.75;61.48;101614.09;5013166;28;7362;-75
2021/03/17 02:19:11;;;;;;;;;;;;;;;8.75;61.91;101614.09;5008879;28;11018;-75
2021/03/17 02:22:08;;;;;;;;;;;;;;;8.74;61.62;101609.72;5014856;28;7242;-75
2021/03/17 02:24:55;;;;;;;;;;;;;;;8.70;61.89;101613.00;5010243;28;12758;-76
2021/03/17 02:27:49;;;;;;;;;;;;;;;8.72;61.69;101613.97;5011858;28;12742;-75
2021/03/17 02:30:33;;;;;;;;;;;;;;;8.66;61.97;101615.41;5003147;28;11188;-76
2021/03/17 02:33:35;;;;;;;;;;;;;;;8.68;62.18;101616.34;4994589;28;7202;-75
2021/03/17 02:36:09;;;;;;;;;;;;;;;8.67;62.35;101618.06;5014786;28;12767;-75
2021/03/17 02:38:35;;;;;;;;;;;;;;;8.63;62.30;101616.16;4997574;28;8452;-75
2021/03/17 02:41:00;;;;;;;;;;;;;;;8.63;61.82;101618.75;4971062;28;8496;-75
2021/03/17 02:43:34;;;;;;;;;;;;;;;8.63;62.23;101617.84;5002048;28;7087;-75
2021/03/17 02:46:03;;;;;;;;;;;;;;;8.62;61.93;101619.56;5005215;28;8051;-75
2021/03/17 02:48:54;;;;;;;;;;;;;;;8.63;61.92;101618.75;4992029;28;8592;-76
2021/03/17 02:51:26;;;;;;;;;;;;;;;8.64;61.93;101619.63;4990127;28;11162;-75
2021/03/17 02:53:52;;;;;;;;;;;;;;;8.60;61.94;101623.75;5004457;28;7933;-75
2021/03/17 02:56:17;;;;;;;;;;;;;;;8.56;62.31;101626.16;5015825;28;7237;-75
2021/03/17 02:58:44;;;;;;;;;;;;;;;8.57;62.05;101622.72;5000840;28;8385;-76
2021/03/17 03:01:12;;;;;;;;;;;;;;;8.57;62.12;101618.44;4993918;28;6983;-75
2021/03/17 03:03:37;;;;;;;;;;;;;;;8.57;62.08;101631.38;5000100;28;11725;-75
2021/03/17 03:06:03;;;;;;;;;;;;;;;8.56;62.04;101627.03;5000277;28;6800;-75
2021/03/17 03:08:29;;;;;;;;;;;;;;;8.54;62.04;101639.03;4989770;28;7220;-75
2021/03/17 03:10:55;;;;;;;;;;;;;;;8.54;62.18;101636.44;4995849;28;7068;-75
2021/03/17 03:13:24;;;;;;;;;;;;;;;8.52;62.21;101628.59;5013660;28;6820;-75
2021/03/17 03:15:50;;;;;;;;;;;;;;;8.52;62.25;101627.72;4996981;28;6835;-76
2021/03/17 03:18:15;;;;;;;;;;;;;;;8.51;62.36;101629.41;4974437;28;8389;-76
2021/03/17 03:20:41;;;;;;;;;;;;;;;8.51;61.82;101625.94;5010976;28;6801;-75
2021/03/17 03:23:06;;;;;;;;;;;;;;;8.49;62.42;101635.34;4985202;28;13275;-75
2021/03/17 03:25:34;;;;;;;;;;;;;;;8.47;62.51;101636.97;5010558;28;7237;-75
2021/03/17 03:28:11;;;;;;;;;;;;;;;8.47;62.06;101642.16;4997046;28;7336;-76
2021/03/17 03:30:38;;;;;;;;;;;;;;;8.46;62.49;101635.22;4967928;28;11286;-76
2021/03/17 03:33:04;;;;;;;;;;;;;;;8.44;62.15;101631.66;4968752;28;8506;-76
2021/03/17 03:35:29;;;;;;;;;;;;;;;8.44;62.25;101636.84;4985790;28;7281;-75
2021/03/17 03:37:55;;;;;;;;;;;;;;;8.43;62.33;101641.13;5010244;28;6814;-75
2021/03/17 03:40:20;;;;;;;;;;;;;;;8.42;62.58;101638.47;5016960;28;8821;-75
2021/03/17 03:42:46;;;;;;;;;;;;;;;8.40;62.52;101635.78;5014595;28;7853;-75
2021/03/17 03:45:14;;;;;;;;;;;;;;;8.40;62.58;101637.50;5000041;28;7549;-76
2021/03/17 03:47:40;;;;;;;;;;;;;;;8.38;62.70;101641.72;4987050;28;6812;-76
2021/03/17 03:50:06;;;;;;;;;;;;;;;8.38;62.25;101644.31;4998942;28;6855;-76
2021/03/17 03:52:49;;;;;;;;;;;;;;;8.36;62.51;101638.19;5013561;28;6982;-76
2021/03/17 03:55:30;;;;;;;;;;;;;;;8.38;62.57;101641.72;5002493;28;11186;-75
2021/03/17 03:57:58;;;;;;;;;;;;;;;8.35;62.43;101647.63;4998693;28;7202;-75
2021/03/17 04:00:24;;;;;;;;;;;;;;;8.35;62.55;101646.75;4987158;28;7134;-75
2021/03/17 04:02:50;;;;;;;;;;;;;;;8.34;62.84;101645.88;4990930;28;8490;-75
2021/03/17 04:05:18;;;;;;;;;;;;;;;8.32;62.63;101647.47;4987204;28;6816;-75
2021/03/17 04:07:45;;;;;;;;;;;;;;;8.33;62.66;101648.34;4995372;28;6796;-75
2021/03/17 04:10:11;;;;;;;;;;;;;;;8.30;62.62;101645.63;4988226;28;7450;-75
2021/03/17 04:12:38;;;;;;;;;;;;;;;8.28;62.56;101642.97;4993527;28;7035;-75
2021/03/17 04:15:04;;;;;;;;;;;;;;;8.26;62.76;101642.03;4988849;28;8174;-75
2021/03/17 04:17:44;;;;;;;;;;;;;;;8.28;62.44;101634.31;4989369;28;6824;-75
2021/03/17 04:20:11;;;;;;;;;;;;;;;8.23;62.96;101640.19;5010215;28;11120;-75
2021/03/17 04:22:37;;;;;;;;;;;;;;;8.27;63.06;101632.56;4995897;28;6957;-75
2021/03/17 04:25:03;;;;;;;;;;;;;;;8.20;62.84;101646.88;4983841;28;7306;-75
2021/03/17 04:27:29;;;;;;;;;;;;;;;8.19;62.89;101648.59;5010018;28;7160;-75
2021/03/17 04:29:54;;;;;;;;;;;;;;;8.24;62.60;101635.88;4993543;28;6795;-75
2021/03/17 04:32:20;;;;;;;;;;;;;;;8.22;62.65;101638.41;4988713;28;7106;-76
2021/03/17 04:34:46;;;;;;;;;;;;;;;8.15;63.17;101638.91;4986386;28;8577;-75
2021/03/17 04:37:12;;;;;;;;;;;;;;;8.18;62.99;101648.50;4988045;28;7573;-75
2021/03/17 04:39:38;;;;;;;;;;;;;;;8.17;62.80;101654.50;4989220;28;7218;-75
2021/03/17 04:42:04;;;;;;;;;;;;;;;8.18;62.95;101657.16;4994741;28;7349;-75
2021/03/17 04:44:29;;;;;;;;;;;;;;;8.17;62.99;101649.34;5005786;28;7570;-75
2021/03/17 04:46:55;;;;;;;;;;;;;;;8.16;63.22;101658.78;4994400;28;6878;-75
2021/03/17 04:49:21;;;;;;;;;;;;;;;8.14;63.02;101656.94;5002822;28;6794;-75
2021/03/17 04:51:46;;;;;;;;;;;;;;;8.17;62.79;101664.84;4984894;28;7092;-75
2021/03/17 04:54:12;;;;;;;;;;;;;;;8.15;62.84;101663.91;5013220;28;7201;-75
2021/03/17 04:56:38;;;;;;;;;;;;;;;8.13;62.71;101658.66;4987591;28;7517;-75
2021/03/17 04:59:04;;;;;;;;;;;;;;;8.12;62.76;101669.81;5008477;28;7303;-75
2021/03/17 05:01:30;;;;;;;;;;;;;;;8.12;62.71;101669.81;4993191;28;7411;-75
2021/03/17 05:03:55;;;;;;;;;;;;;;;8.08;63.24;101670.50;5001898;28;7844;-75
2021/03/17 05:06:21;;;;;;;;;;;;;;;8.10;63.05;101670.56;4982079;28;7258;-75
2021/03/17 05:08:46;;;;;;;;;;;;;;;8.10;62.92;101681.81;5014390;28;7813;-75
2021/03/17 05:11:15;;;;;;;;;;;;;;;8.08;63.21;101683.44;4993643;28;7099;-74
2021/03/17 05:13:40;;;;;;;;;;;;;;;8.05;63.27;101678.13;4998392;28;17711;-73
2021/03/17 05:16:06;;;;;;;;;;;;;;;8.06;63.37;101673.81;5003642;28;6938;-72
2021/03/17 05:18:32;;;;;;;;;;;;;;;8.07;62.94;101683.34;5014527;28;7903;-70
2021/03/17 05:20:57;;;;;;;;;;;;;;;8.07;63.09;101683.34;4997232;28;7075;-70
2021/03/17 05:23:23;;;;;;;;;;;;;;;7.99;63.33;101680.38;5014018;28;6806;-71
2021/03/17 05:25:48;;;;;;;;;;;;;;;7.99;63.10;101682.09;4996591;28;7294;-72
2021/03/17 05:28:15;;;;;;;;;;;;;;;8.05;63.15;101693.63;5003663;28;7123;-71
2021/03/17 05:30:41;;;;;;;;;;;;;;;8.05;63.47;101693.63;5015099;28;11230;-72
2021/03/17 05:33:09;;;;;;;;;;;;;;;8.08;62.86;101690.31;5003835;28;7363;-72
2021/03/17 05:35:35;;;;;;;;;;;;;;;8.08;62.99;101685.13;5002284;28;7014;-72
2021/03/17 05:38:01;;;;;;;;;;;;;;;8.10;62.89;101692.16;4994246;28;6999;-72
2021/03/17 05:40:26;;;;;;;;;;;;;;;8.10;62.93;101686.97;4993861;28;6856;-71
2021/03/17 05:42:52;;;;;;;;;;;;;;;8.13;62.78;101692.28;5014927;28;7432;-70
2021/03/17 05:45:19;;;;;;;;;;;;;;;8.15;62.50;101690.66;5002443;28;7825;-71
2021/03/17 05:47:48;;;;;;;;;;;;;;;8.16;62.33;101695.03;4999866;28;7097;-72
2021/03/17 05:50:15;;;;;;;;;;;;;;;8.15;62.81;101693.25;5017410;28;6795;-71
2021/03/17 05:52:41;;;;;;;;;;;;;;;8.16;62.62;101699.31;5019821;28;11183;-71
2021/03/17 05:55:07;;;;;;;;;;;;;;;8.17;62.36;101695.91;4988490;28;7695;-71
2021/03/17 05:57:33;;;;;;;;;;;;;;;8.20;62.23;101688.28;5000842;28;7218;-71
2021/03/17 05:59:59;;;;;;;;;;;;;;;8.19;62.40;101699.44;4987180;28;7501;-70
2021/03/17 06:02:24;;;;;;;;;;;;;;;8.23;62.21;101701.41;4998897;28;7217;-70
2021/03/17 06:04:50;;;;;;;;;;;;;;;8.21;62.36;101697.84;5015389;28;6825;-71
2021/03/17 06:07:24;;;;;;;;;;;;;;;8.23;62.46;101702.28;5001205;28;8246;-70
2021/03/17 06:09:51;;;;;;;;;;;;;;;8.25;62.11;101702.34;4980302;28;7075;-72
2021/03/17 06:12:17;;;;;;;;;;;;;;;8.24;62.31;101708.34;5003128;28;8088;-71
2021/03/17 06:14:43;;;;;;;;;;;;;;;8.25;62.13;101715.28;4992491;28;8103;-71
2021/03/17 06:17:12;;;;;;;;;;;;;;;8.28;62.25;101710.25;4987430;28;7853;-72
2021/03/17 06:19:37;;;;;;;;;;;;;;;8.27;62.40;101716.25;5010325;28;6995;-73
2021/03/17 06:22:03;;;;;;;;;;;;;;;8.29;61.83;101716.31;4999166;28;6783;-73
2021/03/17 06:24:28;;;;;;;;;;;;;;;8.28;62.02;101722.31;4991729;28;7764;-72
2021/03/17 06:26:54;;;;;;;;;;;;;;;8.30;62.17;101723.25;5005013;28;8253;-72
2021/03/17 06:29:20;;;;;;;;;;;;;;;8.33;62.15;101723.41;5001357;28;6839;-71
2021/03/17 06:31:46;;;;;;;;;;;;;;;8.37;62.08;101726.25;4989598;28;7208;-73
2021/03/17 06:34:12;;;;;;;;;;;;;;;8.38;61.91;101717.66;5018553;28;12587;-72
2021/03/17 06:36:51;;;;;;;;;;;;;;;8.39;61.83;101724.59;5016446;28;8498;-69
2021/03/17 06:39:17;;;;;;;;;;;;;;;8.41;61.53;101725.59;4992480;28;11139;-72
2021/03/17 06:41:52;;;;;;;;;;;;;;;8.44;61.31;101725.75;5017349;28;7358;-71
2021/03/17 06:44:27;;;;;;;;;;;;;;;8.44;61.45;101719.69;4998163;28;11306;-72
2021/03/17 06:47:12;;;;;;;;;;;;;;;8.47;61.60;101720.69;5017135;28;9395;-71
2021/03/17 06:49:39;;;;;;;;;;;;;;;8.48;61.58;101721.59;5015862;28;7063;-70
2021/03/17 06:52:37;;;;;;;;;;;;;;;8.49;61.61;101713.00;5012426;28;7190;-72
2021/03/17 06:55:06;;;;;;;;;;;;;;;8.49;61.31;101707.81;5009761;28;11556;-72
2021/03/17 06:57:31;;;;;;;;;;;;;;;8.52;61.30;101707.97;5011674;28;6990;-73
2021/03/17 07:00:20;;;;;;;;;;;;;;;8.52;61.59;101707.97;5012424;28;6928;-72
2021/03/17 07:03:12;;;;;;;;;;;;;;;8.57;60.96;101705.59;5015518;28;11224;-72
2021/03/17 07:05:42;;;;;;;;;;;;;;;8.60;61.16;101696.25;4991617;28;11142;-71
2021/03/17 07:08:15;;;;;;;;;;;;;;;8.65;61.12;101701.66;5011473;28;7245;-72
2021/03/17 07:10:44;;;;;;;;;;;;;;;8.71;60.68;101695.06;4989949;28;7445;-72
2021/03/17 07:13:12;;;;;;;;;;;;;;;8.72;60.85;101707.19;4999938;28;7531;-71
2021/03/17 07:15:38;;;;;;;;;;;;;;;8.73;60.56;101703.78;4993569;28;7146;-72
2021/03/17 07:18:23;;;;;;;;;;;;;;;8.79;60.77;101710.94;5001675;28;8206;-72
2021/03/17 07:20:59;;;;;;;;;;;;;;;8.95;60.26;101709.94;5002223;28;11289;-72
2021/03/17 07:23:28;;;;;;;;;;;;;;;8.96;60.39;101701.34;5001751;28;7245;-70
2021/03/17 07:26:19;;;;;;;;;;;;;;;8.91;60.44;101700.25;5014105;28;7249;-72
2021/03/17 07:28:47;;;;;;;;;;;;;;;8.86;60.43;101715.59;5007372;28;12198;-72
2021/03/17 07:31:29;;;;;;;;;;;;;;;8.90;60.79;101716.63;5012695;28;11056;-72
2021/03/17 07:34:06;;;;;;;;;;;;;;;8.91;60.48;101708.91;5015991;28;11552;-72
2021/03/17 07:36:45;;;;;;;;;;;;;;;8.94;60.64;101709.03;5000655;28;7289;-72
2021/03/17 07:39:25;;;;;;;;;;;;;;;8.97;60.63;101711.75;5006979;28;7190;-73
2021/03/17 07:41:51;;;;;;;;;;;;;;;8.97;60.76;101714.34;5001356;28;11248;-72
2021/03/17 07:44:17;;;;;;;;;;;;;;;9.02;60.44;101707.69;4995834;28;7423;-74
2021/03/17 07:46:44;;;;;;;;;;;;;;;9.18;59.93;101709.25;4994640;28;8491;-73
2021/03/17 07:49:10;;;;;;;;;;;;;;;9.36;58.98;101699.69;4997528;28;6800;-72
2021/03/17 07:51:44;;;;;;;;;;;;;;;9.50;59.05;101704.59;4988899;28;7170;-73
2021/03/17 07:54:10;;;;;;;;;;;;;;;9.63;58.70;101701.69;4985137;28;6816;-74
2021/03/17 07:56:37;;;;;;;;;;;;;;;9.78;58.29;101704.91;4992672;28;7159;-75
2021/03/17 07:59:02;;;;;;;;;;;;;;;9.92;58.26;101700.28;5012093;28;7281;-74
2021/03/17 08:01:28;;;;;;;;;;;;;;;9.99;58.07;101708.38;4987482;28;7493;-73
2021/03/17 08:03:53;;;;;;;;;;;;;;;10.08;57.45;101710.47;4979916;28;6931;-74
2021/03/17 08:06:20;;;;;;;;;;;;;;;10.24;57.41;101709.44;4982792;28;6796;-74
2021/03/17 08:08:46;;;;;;;;;;;;;;;10.45;57.03;101710.28;5001680;28;11567;-74
2021/03/17 08:11:15;;;;;;;;;;;;;;;10.52;56.72;101713.97;4983273;28;7405;-74
2021/03/17 08:13:42;;;;;;;;;;;;;;;10.44;57.23;101710.22;5013658;28;7681;-74
2021/03/17 08:16:08;;;;;;;;;;;;;;;10.50;57.06;101703.53;4993646;28;7240;-75
2021/03/17 08:18:34;;;;;;;;;;;;;;;10.64;56.58;101707.56;5000139;28;7190;-74
2021/03/17 08:21:00;;;;;;;;;;;;;;;10.66;56.81;101708.50;5012664;28;6779;-75
2021/03/17 08:23:44;;;;;;;;;;;;;;;10.70;56.80;101704.28;4997682;28;6800;-74
2021/03/17 08:26:33;;;;;;;;;;;;;;;10.74;56.45;101711.38;5012060;28;6881;-73
2021/03/17 08:28:59;;;;;;;;;;;;;;;10.78;56.14;101723.66;5002978;28;10960;-74
2021/03/17 08:31:46;;;;;;;;;;;;;;;10.74;56.36;101720.88;5008041;28;7095;-75
2021/03/17 08:34:18;;;;;;;;;;;;;;;10.56;57.08;101721.94;5005368;28;8234;-75
2021/03/17 08:36:43;;;;;;;;;;;;;;;10.52;56.92;101727.84;5013195;28;7318;-73
2021/03/17 08:39:09;;;;;;;;;;;;;;;10.68;57.16;101731.03;4990880;28;7013;-75
2021/03/17 08:41:43;;;;;;;;;;;;;;;11.04;56.22;101726.34;5009375;28;6799;-73
2021/03/17 08:44:14;;;;;;;;;;;;;;;11.33;55.25;101724.78;5015437;28;7095;-74
2021/03/17 08:46:40;;;;;;;;;;;;;;;11.28;55.02;101728.13;5012241;28;7195;-73
2021/03/17 08:49:06;;;;;;;;;;;;;;;11.22;55.88;101721.81;4990426;28;7290;-73
2021/03/17 08:51:47;;;;;;;;;;;;;;;11.41;55.01;101724.25;4998675;28;7518;-74
2021/03/17 08:54:31;;;;;;;;;;;;;;;11.69;54.19;101726.09;4992396;28;7154;-74
2021/03/17 08:57:02;;;;;;;;;;;;;;;11.81;54.18;101728.22;5006390;28;11109;-74
2021/03/17 08:59:46;;;;;;;;;;;;;;;11.82;54.05;101727.44;5009519;28;6808;-74
2021/03/17 09:02:21;;;;;;;;;;;;;;;11.84;54.51;101726.66;5011800;28;7252;-74
2021/03/17 09:04:49;;;;;;;;;;;;;;;12.02;53.22;101741.09;5011550;28;11354;-74
2021/03/17 09:07:14;;;;;;;;;;;;;;;12.14;53.53;101739.78;5009038;28;7480;-74
2021/03/17 09:09:49;;;;;;;;;;;;;;;12.32;53.20;101734.28;5011845;28;7434;-75
2021/03/17 09:12:16;;;;;;;;;;;;;;;12.49;52.34;101730.47;5011727;28;6879;-75
2021/03/17 09:14:42;;;;;;;;;;;;;;;12.69;52.05;101730.22;4997683;28;7740;-74
2021/03/17 09:17:21;;;;;;;;;;;;;;;12.96;50.94;101723.19;5009549;28;7750;-75
2021/03/17 09:19:54;;;;;;;;;;;;;;;13.04;51.19;101726.91;5017838;28;6820;-75
2021/03/17 09:22:35;;;;;;;;;;;;;;;13.03;51.29;101738.19;4988570;28;12615;-74
2021/03/17 09:25:49;;;;;;;;;;;;;;;13.10;50.89;101727.09;4982233;28;11164;-74
2021/03/17 09:28:25;;;;;;;;;;;;;;;13.05;51.40;101736.50;5006732;28;11017;-73
2021/03/17 09:30:52;;;;;;;;;;;;;;;13.06;51.48;101740.00;5018385;28;11053;-74
2021/03/17 09:33:29;;;;;;;;;;;;;;;13.02;51.14;101727.72;5003089;28;7234;-74
2021/03/17 09:36:14;;;;;;;;;;;;;;;13.06;51.08;101733.06;5016388;28;11442;-74
2021/03/17 09:38:42;;;;;;;;;;;;;;;13.16;51.06;101733.31;5001622;28;7137;-75
2021/03/17 09:41:19;;;;;;;;;;;;;;;13.23;50.95;101733.56;5008961;28;7041;-75
2021/03/17 09:43:48;;;;;;;;;;;;;;;13.35;51.02;101727.81;5004739;28;7190;-75
2021/03/17 09:46:21;;;;;;;;;;;;;;;13.42;50.17;101742.81;5014503;28;7122;-75
2021/03/17 09:48:51;;;;;;;;;;;;;;;13.45;50.35;101745.50;5014982;28;7277;-74
2021/03/17 09:51:18;;;;;;;;;;;;;;;13.45;50.04;101745.50;5002213;28;7302;-75
2021/03/17 09:53:44;;;;;;;;;;;;;;;13.48;50.40;101745.56;4992355;28;7199;-74
2021/03/17 09:56:10;;;;;;;;;;;;;;;13.63;49.91;101742.50;4995347;28;7277;-74
2021/03/17 09:58:36;;;;;;;;;;;;;;;13.81;49.33;101742.06;5013320;28;6807;-75
2021/03/17 10:01:11;;;;;;;;;;;;;;;13.92;49.31;101745.84;5005966;28;7080;-75
2021/03/17 10:03:37;;;;;;;;;;;;;;;14.16;48.66;101733.38;4990844;28;6788;-76
2021/03/17 10:06:03;;;;;;;;;;;;;;;14.26;48.15;101732.78;4987208;28;6821;-76
2021/03/17 10:08:32;;;;;;;;;;;;;;;14.05;49.05;101729.66;5015433;28;6775;-76
2021/03/17 10:10:58;;;;;;;;;;;;;;;13.91;49.19;101734.53;4999203;28;7223;-77
2021/03/17 10:13:24;;;;;;;;;;;;;;;13.92;49.10;101733.66;5004401;28;6882;-75
2021/03/17 10:15:51;;;;;;;;;;;;;;;13.92;49.52;101735.41;5015753;28;11238;-77
2021/03/17 10:18:16;;;;;;;;;;;;;;;13.88;48.94;101731.84;5006254;28;7170;-75
2021/03/17 10:20:42;;;;;;;;;;;;;;;13.89;49.64;101744.03;5017063;28;7267;-73
2021/03/17 10:23:07;;;;;;;;;;;;;;;13.89;48.97;101735.31;5009327;28;7246;-75
2021/03/17 10:25:33;;;;;;;;;;;;;;;13.89;48.85;101738.81;5015757;28;7215;-73
2021/03/17 10:28:08;;;;;;;;;;;;;;;13.99;49.17;101745.16;4992553;28;7130;-75
2021/03/17 10:30:41;;;;;;;;;;;;;;;13.96;49.57;101755.53;5000495;28;7268;-75
2021/03/17 10:33:13;;;;;;;;;;;;;;;13.89;48.86;101744.03;4985828;28;7162;-75
2021/03/17 10:35:39;;;;;;;;;;;;;;;13.98;49.01;101766.88;4986745;28;7149;-74
2021/03/17 10:38:06;;;;;;;;;;;;;;;14.11;48.62;101758.53;4996559;28;7242;-74
2021/03/17 10:40:31;;;;;;;;;;;;;;;14.19;48.45;101758.69;4995627;28;7134;-74
2021/03/17 10:43:28;;;;;;;;;;;;;;;14.29;48.30;101763.31;4979458;28;7219;-73
2021/03/17 10:45:54;;;;;;;;;;;;;;;14.29;48.43;101758.97;4996008;28;11092;-75
2021/03/17 10:48:22;;;;;;;;;;;;;;;14.21;48.46;101760.50;4985446;28;6872;-75
2021/03/17 10:50:47;;;;;;;;;;;;;;;14.20;48.13;101760.47;4999101;28;8414;-74
2021/03/17 10:53:19;;;;;;;;;;;;;;;14.29;47.95;101755.47;4968160;28;6942;-74
2021/03/17 10:55:45;;;;;;;;;;;;;;;14.47;47.42;101755.94;5010312;28;6796;-74
2021/03/17 10:58:13;;;;;;;;;;;;;;;14.58;47.71;101751.84;4995913;28;6820;-75
2021/03/17 11:00:39;;;;;;;;;;;;;;;14.71;47.18;101753.00;5003017;28;7310;-75
2021/03/17 11:03:25;;;;;;;;;;;;;;;14.79;46.70;101747.94;4997295;28;7210;-74
2021/03/17 11:05:52;;;;;;;;;;;;;;;15.00;46.21;101742.28;5003751;28;7381;-75
2021/03/17 11:08:18;;;;;;;;;;;;;;;15.17;45.96;101749.63;4998692;28;7095;-75
2021/03/17 11:10:54;;;;;;;;;;;;;;;15.23;46.02;101733.19;5001330;28;7235;-74
2021/03/17 11:13:20;;;;;;;;;;;;;;;15.31;46.13;101734.22;5006580;28;7017;-75
2021/03/17 11:15:53;;;;;;;;;;;;;;;15.37;45.83;101742.19;5015999;28;8156;-75
2021/03/17 11:18:29;;;;;;;;;;;;;;;15.81;44.82;101736.91;5007579;28;6840;-74
2021/03/17 11:20:56;;;;;;;;;;;;;;;16.25;43.90;101732.44;5000461;28;11414;-75
2021/03/17 11:23:33;;;;;;;;;;;;;;;16.39;43.52;101730.00;4996706;28;7300;-74
2021/03/17 11:25:58;;;;;;;;;;;;;;;16.42;43.21;101738.81;4989877;28;11081;-75
2021/03/17 11:28:25;;;;;;;;;;;;;;;16.47;43.34;101731.00;4994044;28;8137;-74
2021/03/17 11:30:54;;;;;;;;;;;;;;;16.49;43.24;101731.91;5014435;28;7190;-74
2021/03/17 11:33:20;;;;;;;;;;;;;;;16.54;43.14;101738.09;4995513;28;6988;-75
2021/03/17 11:35:45;;;;;;;;;;;;;;;16.63;42.63;101738.25;4980605;28;7306;-75
2021/03/17 11:38:11;;;;;;;;;;;;;;;16.68;42.89;101736.59;4992256;28;6876;-75
2021/03/17 11:40:37;;;;;;;;;;;;;;;16.73;42.66;101734.03;4995516;28;7897;-75
2021/03/17 11:43:08;;;;;;;;;;;;;;;16.86;42.54;101732.47;4985418;28;7099;-75
2021/03/17 11:45:33;;;;;;;;;;;;;;;16.93;42.02;101740.41;4985791;28;6836;-75
2021/03/17 11:48:02;;;;;;;;;;;;;;;17.11;41.81;101728.38;4998505;28;7361;-75
2021/03/17 11:50:27;;;;;;;;;;;;;;;17.21;41.62;101728.50;5013092;28;6994;-75
2021/03/17 11:52:53;;;;;;;;;;;;;;;17.32;41.44;101716.38;4981773;28;8697;-74
2021/03/17 11:55:19;;;;;;;;;;;;;;;17.42;41.14;101719.09;5012481;28;7225;-75
2021/03/17 11:57:45;;;;;;;;;;;;;;;17.45;40.77;101719.16;5013511;28;6996;-75
2021/03/17 12:00:11;;;;;;;;;;;;;;;17.58;40.39;101711.41;5015973;28;7220;-75
2021/03/17 12:02:36;;;;;;;;;;;;;;;17.67;40.31;101723.75;5017290;28;6859;-75
2021/03/17 12:05:02;;;;;;;;;;;;;;;17.75;39.99;101724.72;4996905;28;7497;-74
2021/03/17 12:07:28;;;;;;;;;;;;;;;17.87;39.42;101732.75;5015454;28;6776;-75
2021/03/17 12:09:55;;;;;;;;;;;;;;;18.19;39.55;101729.47;5008251;28;15756;-75
2021/03/17 12:12:21;;;;;;;;;;;;;;;18.40;38.40;101720.84;5014017;28;7178;-76
2021/03/17 12:14:46;;;;;;;;;;;;;;;18.70;37.95;101728.09;4981235;28;7051;-74
2021/03/17 12:17:12;;;;;;;;;;;;;;;18.88;37.47;101728.19;5012726;28;7126;-74
2021/03/17 12:19:37;;;;;;;;;;;;;;;19.03;37.40;101723.00;5014772;28;7305;-74
2021/03/17 12:22:03;;;;;;;;;;;;;;;19.13;37.44;101714.25;5014178;28;7452;-75
2021/03/17 12:24:28;;;;;;;;;;;;;;;19.26;36.87;101715.19;5014718;28;6825;-74
2021/03/17 12:26:54;;;;;;;;;;;;;;;19.33;37.08;101718.69;4994166;28;17220;-75
2021/03/17 12:29:20;;;;;;;;;;;;;;;19.68;36.23;101714.41;5010298;28;7291;-73
2021/03/17 12:31:45;;;;;;;;;;;;;;;19.62;36.32;101717.06;5013248;28;7162;-74
2021/03/17 12:34:11;;;;;;;;;;;;;;;19.30;36.70;101705.53;5012192;28;7558;-74
2021/03/17 12:36:36;;;;;;;;;;;;;;;19.18;37.10;101711.63;5009821;28;6800;-74
2021/03/17 12:39:04;;;;;;;;;;;;;;;19.26;36.79;101709.03;4998926;28;6860;-74
2021/03/17 12:41:29;;;;;;;;;;;;;;;19.32;36.48;101701.16;4988390;28;6816;-75
2021/03/17 12:43:55;;;;;;;;;;;;;;;19.26;36.44;101704.66;4983405;28;11261;-74
2021/03/17 12:46:20;;;;;;;;;;;;;;;19.26;36.72;101706.41;5008345;28;7229;-73
2021/03/17 12:48:46;;;;;;;;;;;;;;;19.29;36.63;101709.03;5014062;28;8368;-75
2021/03/17 12:51:11;;;;;;;;;;;;;;;19.28;36.36;101702.91;5014584;28;7922;-75
2021/03/17 12:53:37;;;;;;;;;;;;;;;19.25;36.39;101713.44;5015856;28;6864;-75
2021/03/17 12:56:04;;;;;;;;;;;;;;;19.09;37.06;101707.22;5015221;28;7230;-74
2021/03/17 12:58:30;;;;;;;;;;;;;;;18.86;37.46;101708.91;4999651;28;6792;-75
2021/03/17 13:00:56;;;;;;;;;;;;;;;18.55;37.77;101711.31;5016850;28;11704;-75
2021/03/17 13:03:23;;;;;;;;;;;;;;;18.35;38.67;101717.31;4992081;28;7071;-74